Time;durP1;ratioP1;P1;durP2;ratioP2;P2;SDS_P1;SDS_P2;PMS_P1;PMS_P2;Temp;Humidity;BMP_temperature;BMP_pressure;BME280_temperature;BME280_humidity;BME280_pressure;Samples;Min_cycle;Max_cycle;Signal;HPM_P1;HPM_P2
2022/07/28 00:00:43;;;;;;;4.43;3.88;;;;;;;;;;5072486;28;20027;-45
2022/07/28 00:03:08;;;;;;;4.73;4.23;;;;;;;;;;5072249;28;20075;-44
2022/07/28 00:05:34;;;;;;;5.40;4.38;;;;;;;;;;5071636;28;20679;-44
2022/07/28 00:08:00;;;;;;;7.75;4.63;;;;;;;;;;5073164;28;20066;-44
2022/07/28 00:10:25;;;;;;;5.00;4.45;;;;;;;;;;5073297;28;20024;-44
2022/07/28 00:12:50;;;;;;;7.65;4.60;;;;;;;;;;5070686;28;20739;-46
2022/07/28 00:15:15;;;;;;;8.33;4.10;;;;;;;;;;5071974;28;20021;-44
2022/07/28 00:17:41;;;;;;;4.95;4.45;;;;;;;;;;5072731;28;20715;-46
2022/07/28 00:20:07;;;;;;;4.30;3.83;;;;;;;;;;5072753;28;20479;-45
2022/07/28 00:22:32;;;;;;;5.60;4.47;;;;;;;;;;5072150;28;20324;-45
2022/07/28 00:24:57;;;;;;;5.05;4.22;;;;;;;;;;5070775;28;20413;-44
2022/07/28 00:27:23;;;;;;;4.53;3.85;;;;;;;;;;5072673;28;20454;-44
2022/07/28 00:29:48;;;;;;;8.13;3.83;;;;;;;;;;5070985;28;20024;-44
2022/07/28 00:32:14;;;;;;;6.97;4.97;;;;;;;;;;5071842;28;20561;-44
2022/07/28 00:34:39;;;;;;;5.05;4.18;;;;;;;;;;5070835;28;20032;-44
2022/07/28 00:37:04;;;;;;;7.78;4.70;;;;;;;;;;5070713;28;20025;-45
2022/07/28 00:39:30;;;;;;;5.30;4.78;;;;;;;;;;5071891;28;20016;-44
2022/07/28 00:41:55;;;;;;;6.25;4.28;;;;;;;;;;5071436;28;20371;-45
2022/07/28 00:44:21;;;;;;;6.05;4.32;;;;;;;;;;5071787;28;20017;-44
2022/07/28 00:46:46;;;;;;;4.85;4.00;;;;;;;;;;5070533;28;20112;-44
2022/07/28 00:49:15;;;;;;;5.85;4.10;;;;;;;;;;5070293;28;20024;-45
2022/07/28 00:51:40;;;;;;;6.53;3.80;;;;;;;;;;5071381;28;20025;-48
2022/07/28 00:54:06;;;;;;;6.70;4.00;;;;;;;;;;5070806;28;20380;-47
2022/07/28 00:56:32;;;;;;;11.02;3.95;;;;;;;;;;5071975;28;20111;-46
2022/07/28 00:58:57;;;;;;;5.35;4.15;;;;;;;;;;5071620;28;20021;-44
2022/07/28 01:01:23;;;;;;;5.63;3.83;;;;;;;;;;5069371;28;20031;-45
2022/07/28 01:03:52;;;;;;;5.75;3.90;;;;;;;;;;5069520;28;20044;-44
2022/07/28 01:06:20;;;;;;;5.22;3.90;;;;;;;;;;5071583;28;20093;-44
2022/07/28 01:09:21;;;;;;;4.43;3.78;;;;;;;;;;5071478;28;20020;-45
2022/07/28 01:11:46;;;;;;;6.18;4.65;;;;;;;;;;5008681;28;20424;-46
2022/07/28 01:14:11;;;;;;;5.60;4.20;;;;;;;;;;5051826;28;20081;-44
2022/07/28 01:16:39;;;;;;;5.40;4.25;;;;;;;;;;5071724;28;20288;-44
2022/07/28 01:19:25;;;;;;;6.03;4.22;;;;;;;;;;5071649;28;20471;-45
2022/07/28 01:21:50;;;;;;;5.20;3.97;;;;;;;;;;5039266;28;20533;-44
2022/07/28 01:24:16;;;;;;;4.50;3.72;;;;;;;;;;5068627;28;20047;-45
2022/07/28 01:26:53;;;;;;;4.30;3.50;;;;;;;;;;5071748;28;20017;-44
2022/07/28 01:29:37;;;;;;;4.57;3.78;;;;;;;;;;5071401;28;20252;-45
2022/07/28 01:32:04;;;;;;;5.00;4.03;;;;;;;;;;5070934;28;20035;-45
2022/07/28 01:34:33;;;;;;;8.45;4.57;;;;;;;;;;5071082;28;20013;-44
2022/07/28 01:37:05;;;;;;;7.90;4.67;;;;;;;;;;5071003;28;20479;-45
2022/07/28 01:39:32;;;;;;;5.97;4.55;;;;;;;;;;5070304;28;20031;-44
2022/07/28 01:41:59;;;;;;;5.22;3.97;;;;;;;;;;5070793;28;20348;-44
2022/07/28 01:44:25;;;;;;;5.88;3.88;;;;;;;;;;5069837;28;20021;-45
2022/07/28 01:46:51;;;;;;;9.75;4.72;;;;;;;;;;5070724;28;20505;-45
2022/07/28 01:49:18;;;;;;;4.60;4.15;;;;;;;;;;5071114;28;20021;-44
2022/07/28 01:51:43;;;;;;;8.32;4.00;;;;;;;;;;5069590;28;20028;-48
2022/07/28 01:54:10;;;;;;;6.00;3.90;;;;;;;;;;5070808;28;20033;-45
2022/07/28 01:56:36;;;;;;;3.70;3.30;;;;;;;;;;5071318;28;20085;-45
2022/07/28 01:59:05;;;;;;;4.57;3.13;;;;;;;;;;5071105;28;20020;-45
2022/07/28 02:01:35;;;;;;;6.90;3.70;;;;;;;;;;5070990;28;20024;-44
2022/07/28 02:04:01;;;;;;;3.92;3.45;;;;;;;;;;5068929;28;20547;-45
2022/07/28 02:06:28;;;;;;;4.30;3.70;;;;;;;;;;5071284;28;20029;-44
2022/07/28 02:08:53;;;;;;;8.23;3.42;;;;;;;;;;5070767;28;20020;-46
2022/07/28 02:14:03;;;;;;;4.57;2.95;;;;;;;;;;5071156;28;20024;-44
2022/07/28 02:16:29;;;;;;;6.95;3.47;;;;;;;;;;5073237;28;20029;-45
2022/07/28 02:18:55;;;;;;;6.03;3.30;;;;;;;;;;5073624;28;20520;-46
2022/07/28 02:21:23;;;;;;;6.18;3.17;;;;;;;;;;5074531;28;20193;-45
2022/07/28 02:23:49;;;;;;;6.13;3.40;;;;;;;;;;5072634;28;20016;-46
2022/07/28 02:26:15;;;;;;;3.72;3.20;;;;;;;;;;5074661;28;20482;-44
2022/07/28 02:28:45;;;;;;;3.45;2.90;;;;;;;;;;5073031;28;20017;-44
2022/07/28 02:31:23;;;;;;;4.82;3.38;;;;;;;;;;5072864;28;20106;-44
2022/07/28 02:33:50;;;;;;;6.32;3.20;;;;;;;;;;5072552;28;20016;-46
2022/07/28 02:36:25;;;;;;;4.93;3.22;;;;;;;;;;5074414;28;20032;-45
2022/07/28 02:38:53;;;;;;;6.15;3.10;;;;;;;;;;5074127;28;20112;-44
2022/07/28 02:41:24;;;;;;;5.57;2.90;;;;;;;;;;5074333;28;20029;-44
2022/07/28 02:43:51;;;;;;;3.58;3.00;;;;;;;;;;5072344;28;20047;-45
2022/07/28 02:46:18;;;;;;;6.78;3.70;;;;;;;;;;5072732;28;20024;-45
2022/07/28 02:48:46;;;;;;;4.75;3.10;;;;;;;;;;5074257;28;20057;-48
2022/07/28 02:51:12;;;;;;;6.40;3.00;;;;;;;;;;5073702;28;20105;-44
2022/07/28 02:53:38;;;;;;;5.13;3.30;;;;;;;;;;5073202;28;20494;-44
2022/07/28 02:56:03;;;;;;;4.15;3.35;;;;;;;;;;5073266;28;20028;-46
2022/07/28 02:58:29;;;;;;;3.50;2.70;;;;;;;;;;5073386;28;20125;-43
2022/07/28 03:00:55;;;;;;;3.60;2.92;;;;;;;;;;5073792;28;20533;-44
2022/07/28 03:03:21;;;;;;;7.50;3.78;;;;;;;;;;5071857;28;20051;-46
2022/07/28 03:05:47;;;;;;;4.72;3.22;;;;;;;;;;5073613;28;20103;-44
2022/07/28 03:08:13;;;;;;;5.18;2.80;;;;;;;;;;5072449;28;20016;-44
2022/07/28 03:10:38;;;;;;;7.10;3.80;;;;;;;;;;5073957;28;20031;-43
2022/07/28 03:13:05;;;;;;;5.30;3.08;;;;;;;;;;5071575;28;20020;-44
2022/07/28 03:15:31;;;;;;;5.75;3.33;;;;;;;;;;5073754;28;20103;-44
2022/07/28 03:17:57;;;;;;;5.95;3.03;;;;;;;;;;5074099;28;20424;-45
2022/07/28 03:20:22;;;;;;;6.43;3.40;;;;;;;;;;5074245;28;20110;-44
2022/07/28 03:22:48;;;;;;;4.80;3.47;;;;;;;;;;5073215;28;20459;-44
2022/07/28 03:25:21;;;;;;;6.55;3.38;;;;;;;;;;5070662;28;20506;-44
2022/07/28 03:27:47;;;;;;;8.68;3.58;;;;;;;;;;5071491;28;20023;-44
2022/07/28 03:30:18;;;;;;;3.97;3.00;;;;;;;;;;5073178;28;20091;-44
2022/07/28 03:32:48;;;;;;;4.28;3.22;;;;;;;;;;5072194;28;20017;-44
2022/07/28 03:35:14;;;;;;;10.43;3.58;;;;;;;;;;5071826;28;20024;-46
2022/07/28 03:37:44;;;;;;;6.53;3.10;;;;;;;;;;5071685;28;20036;-44
2022/07/28 03:40:11;;;;;;;6.43;3.40;;;;;;;;;;5071554;28;20047;-46
2022/07/28 03:42:37;;;;;;;3.47;3.00;;;;;;;;;;5072416;28;20103;-44
2022/07/28 03:45:03;;;;;;;5.40;3.40;;;;;;;;;;5073065;28;20024;-43
2022/07/28 03:47:29;;;;;;;3.85;3.17;;;;;;;;;;5073611;28;20520;-43
2022/07/28 03:49:54;;;;;;;4.18;3.17;;;;;;;;;;5073094;28;20020;-45
2022/07/28 03:52:19;;;;;;;4.97;3.20;;;;;;;;;;5073065;28;20040;-44
2022/07/28 03:54:45;;;;;;;6.40;3.80;;;;;;;;;;5072360;28;20013;-48
2022/07/28 03:57:10;;;;;;;8.85;3.63;;;;;;;;;;5072535;28;20083;-44
2022/07/28 03:59:35;;;;;;;4.43;3.15;;;;;;;;;;5073049;28;20023;-45
2022/07/28 04:02:01;;;;;;;6.22;3.20;;;;;;;;;;5072921;28;20048;-46
2022/07/28 04:04:26;;;;;;;8.23;3.23;;;;;;;;;;5072486;28;20480;-44
2022/07/28 04:06:51;;;;;;;5.15;3.65;;;;;;;;;;5073152;28;20250;-44
2022/07/28 04:09:17;;;;;;;6.37;3.03;;;;;;;;;;5072516;28;20087;-45
2022/07/28 04:11:42;;;;;;;6.60;3.97;;;;;;;;;;5072168;28;20739;-45
2022/07/28 04:14:08;;;;;;;7.45;3.58;;;;;;;;;;5072245;28;20237;-45
2022/07/28 04:16:33;;;;;;;10.10;3.90;;;;;;;;;;5072333;28;20468;-44
2022/07/28 04:18:59;;;;;;;6.55;4.18;;;;;;;;;;5071447;28;20029;-44
2022/07/28 04:21:24;;;;;;;4.72;2.95;;;;;;;;;;5071217;28;20020;-45
2022/07/28 04:23:50;;;;;;;4.47;3.33;;;;;;;;;;5072194;28;20021;-44
2022/07/28 04:26:16;;;;;;;5.15;3.15;;;;;;;;;;5070478;28;20055;-45
2022/07/28 04:28:41;;;;;;;4.75;3.70;;;;;;;;;;5071530;28;20016;-45
2022/07/28 04:31:07;;;;;;;5.05;3.50;;;;;;;;;;5070653;28;20356;-45
2022/07/28 04:33:32;;;;;;;5.95;3.40;;;;;;;;;;5071232;28;20055;-44
2022/07/28 04:35:59;;;;;;;5.82;3.60;;;;;;;;;;5069764;28;20023;-45
2022/07/28 04:38:24;;;;;;;4.45;3.50;;;;;;;;;;5071374;28;20527;-45
2022/07/28 04:40:50;;;;;;;6.90;3.92;;;;;;;;;;5071845;28;20098;-45
2022/07/28 04:43:15;;;;;;;5.03;3.50;;;;;;;;;;5070622;28;20027;-46
2022/07/28 04:45:40;;;;;;;4.30;3.40;;;;;;;;;;5070194;28;20487;-45
2022/07/28 04:48:06;;;;;;;7.13;3.80;;;;;;;;;;5071865;28;20126;-47
2022/07/28 04:50:31;;;;;;;11.10;3.70;;;;;;;;;;5070455;28;20597;-44
2022/07/28 04:52:57;;;;;;;7.25;3.97;;;;;;;;;;5069920;28;20516;-45
2022/07/28 04:55:23;;;;;;;7.50;4.00;;;;;;;;;;5070878;28;20459;-45
2022/07/28 04:57:48;;;;;;;9.35;3.95;;;;;;;;;;5071603;28;20037;-44
2022/07/28 05:00:14;;;;;;;8.05;4.15;;;;;;;;;;5070664;28;20387;-44
2022/07/28 05:02:40;;;;;;;5.85;3.70;;;;;;;;;;5071834;28;20099;-44
2022/07/28 05:05:05;;;;;;;6.82;3.95;;;;;;;;;;5071463;28;20137;-46
2022/07/28 05:07:30;;;;;;;10.82;3.65;;;;;;;;;;5071833;28;20052;-44
2022/07/28 05:09:56;;;;;;;6.05;3.40;;;;;;;;;;5070595;28;20028;-45
2022/07/28 05:12:21;;;;;;;8.02;4.03;;;;;;;;;;5070065;28;20074;-44
2022/07/28 05:14:46;;;;;;;4.80;3.80;;;;;;;;;;5071040;28;20463;-44
2022/07/28 05:17:12;;;;;;;6.43;3.42;;;;;;;;;;5070217;28;20120;-45
2022/07/28 05:19:37;;;;;;;6.82;3.88;;;;;;;;;;5070418;28;20040;-44
2022/07/28 05:22:03;;;;;;;5.43;3.78;;;;;;;;;;5071355;28;20452;-44
2022/07/28 05:24:28;;;;;;;8.02;4.10;;;;;;;;;;5070066;28;20020;-47
2022/07/28 05:26:53;;;;;;;9.23;3.60;;;;;;;;;;5071001;28;20020;-44
2022/07/28 05:29:18;;;;;;;7.70;3.60;;;;;;;;;;5070851;28;20256;-45
2022/07/28 05:31:44;;;;;;;12.67;4.20;;;;;;;;;;5071325;28;20242;-45
2022/07/28 05:34:09;;;;;;;4.95;3.25;;;;;;;;;;5070925;28;20272;-44
2022/07/28 05:36:34;;;;;;;11.75;3.90;;;;;;;;;;5069464;28;20032;-44
2022/07/28 05:39:00;;;;;;;9.88;4.22;;;;;;;;;;5071362;28;20379;-44
2022/07/28 05:41:25;;;;;;;8.32;3.72;;;;;;;;;;5071160;28;20444;-45
2022/07/28 05:43:50;;;;;;;6.43;3.33;;;;;;;;;;5068320;28;20111;-44
2022/07/28 05:46:16;;;;;;;6.27;3.00;;;;;;;;;;5071294;28;20103;-44
2022/07/28 05:48:41;;;;;;;5.33;3.33;;;;;;;;;;5064475;28;20242;-44
2022/07/28 05:51:06;;;;;;;8.00;4.07;;;;;;;;;;5061010;28;20253;-46
2022/07/28 05:53:31;;;;;;;8.73;3.57;;;;;;;;;;5066931;28;20016;-46
2022/07/28 05:55:57;;;;;;;5.60;3.47;;;;;;;;;;5060853;28;20272;-46
2022/07/28 05:58:22;;;;;;;14.38;3.50;;;;;;;;;;5064453;28;20667;-44
2022/07/28 06:00:48;;;;;;;6.95;4.22;;;;;;;;;;5071365;28;20070;-43
2022/07/28 06:03:13;;;;;;;9.82;3.60;;;;;;;;;;5075628;28;20056;-46
2022/07/28 06:05:39;;;;;;;12.88;3.35;;;;;;;;;;5067034;28;20024;-44
2022/07/28 06:08:04;;;;;;;9.38;3.25;;;;;;;;;;5073781;28;20024;-45
2022/07/28 06:13:14;;;;;;;13.40;3.83;;;;;;;;;;5079023;28;20160;-45
2022/07/28 06:15:40;;;;;;;11.30;3.40;;;;;;;;;;5081382;28;20040;-44
2022/07/28 06:18:05;;;;;;;8.90;3.20;;;;;;;;;;5076742;28;20064;-44
2022/07/28 06:20:31;;;;;;;10.20;3.63;;;;;;;;;;5084062;28;20074;-45
2022/07/28 06:22:56;;;;;;;10.10;3.60;;;;;;;;;;5067971;28;20024;-46
2022/07/28 06:25:22;;;;;;;13.00;3.95;;;;;;;;;;5068427;28;20020;-46
2022/07/28 06:27:49;;;;;;;23.05;4.20;;;;;;;;;;5068803;28;20097;-41
2022/07/28 06:30:15;;;;;;;6.45;3.22;;;;;;;;;;5068760;28;20020;-41
2022/07/28 06:32:40;;;;;;;4.45;3.25;;;;;;;;;;5070174;28;20085;-40
2022/07/28 06:35:06;;;;;;;7.60;3.15;;;;;;;;;;5077148;28;20095;-41
2022/07/28 06:37:31;;;;;;;6.43;3.20;;;;;;;;;;5071585;28;20508;-38
2022/07/28 06:39:57;;;;;;;7.10;3.45;;;;;;;;;;5066330;28;20021;-36
2022/07/28 06:42:22;;;;;;;6.25;2.85;;;;;;;;;;5077773;28;20028;-43
2022/07/28 06:44:49;;;;;;;7.75;3.35;;;;;;;;;;5069816;28;20111;-43
2022/07/28 06:47:14;;;;;;;8.05;2.92;;;;;;;;;;5074765;28;20028;-40
2022/07/28 06:49:40;;;;;;;8.32;2.78;;;;;;;;;;5067149;28;20391;-38
2022/07/28 06:52:06;;;;;;;5.20;2.85;;;;;;;;;;5065762;28;20021;-43
2022/07/28 06:54:31;;;;;;;5.35;2.85;;;;;;;;;;5064842;28;20079;-41
2022/07/28 06:56:56;;;;;;;12.70;3.20;;;;;;;;;;5070596;28;20164;-40
2022/07/28 06:59:22;;;;;;;5.43;2.53;;;;;;;;;;5054926;28;20021;-42
2022/07/28 07:01:47;;;;;;;5.38;2.60;;;;;;;;;;5084122;28;20478;-39
2022/07/28 07:04:13;;;;;;;8.70;2.95;;;;;;;;;;5085778;28;20568;-41
2022/07/28 07:06:38;;;;;;;6.53;2.83;;;;;;;;;;5072753;28;20028;-39
2022/07/28 07:09:03;;;;;;;14.15;2.92;;;;;;;;;;5082510;28;20078;-44
2022/07/28 07:11:29;;;;;;;7.15;3.38;;;;;;;;;;5076723;28;20455;-39
2022/07/28 07:13:55;;;;;;;3.95;3.03;;;;;;;;;;5079217;28;20675;-43
2022/07/28 07:16:20;;;;;;;5.93;2.80;;;;;;;;;;5084398;28;20073;-39
2022/07/28 07:18:47;;;;;;;5.85;3.38;;;;;;;;;;5070435;28;20082;-44
2022/07/28 07:21:13;;;;;;;4.82;2.97;;;;;;;;;;5088993;28;20027;-40
2022/07/28 07:23:38;;;;;;;5.57;2.95;;;;;;;;;;5075238;28;20491;-44
2022/07/28 07:26:03;;;;;;;6.07;2.83;;;;;;;;;;5078925;28;20031;-40
2022/07/28 07:28:29;;;;;;;6.30;3.28;;;;;;;;;;5072388;28;20494;-42
2022/07/28 07:30:54;;;;;;;4.50;2.50;;;;;;;;;;5078799;28;20447;-38
2022/07/28 07:33:19;;;;;;;5.87;3.13;;;;;;;;;;5074284;28;20566;-46
2022/07/28 07:35:45;;;;;;;5.95;2.97;;;;;;;;;;5066774;28;20254;-42
2022/07/28 07:38:10;;;;;;;6.25;2.97;;;;;;;;;;5077077;28;20044;-43
2022/07/28 07:40:36;;;;;;;8.05;3.00;;;;;;;;;;5067969;28;20100;-44
2022/07/28 07:43:02;;;;;;;7.47;3.50;;;;;;;;;;5068604;28;20025;-43
2022/07/28 07:45:27;;;;;;;3.75;2.83;;;;;;;;;;5069615;28;20436;-42
2022/07/28 07:47:53;;;;;;;6.70;3.22;;;;;;;;;;5070996;28;20024;-41
2022/07/28 07:50:18;;;;;;;7.57;2.97;;;;;;;;;;5073553;28;20590;-42
2022/07/28 07:52:43;;;;;;;8.73;3.33;;;;;;;;;;5074964;28;20054;-45
2022/07/28 07:55:08;;;;;;;3.67;3.03;;;;;;;;;;5073265;28;20021;-45
2022/07/28 07:57:34;;;;;;;7.67;3.27;;;;;;;;;;5072591;28;20063;-45
2022/07/28 07:59:59;;;;;;;6.40;3.03;;;;;;;;;;5053634;28;20262;-46
2022/07/28 08:02:25;;;;;;;4.17;2.93;;;;;;;;;;5062496;28;20021;-45
2022/07/28 08:04:50;;;;;;;11.60;3.20;;;;;;;;;;5068735;28;20321;-47
2022/07/28 08:07:15;;;;;;;3.88;2.97;;;;;;;;;;5068788;28;20666;-47
2022/07/28 08:09:41;;;;;;;6.60;2.72;;;;;;;;;;5071360;28;20044;-47
2022/07/28 08:12:06;;;;;;;6.78;2.72;;;;;;;;;;5074745;28;20021;-45
2022/07/28 08:14:32;;;;;;;6.57;3.38;;;;;;;;;;5053361;28;20583;-42
2022/07/28 08:16:58;;;;;;;14.73;3.75;;;;;;;;;;5082243;28;20036;-43
2022/07/28 08:19:23;;;;;;;4.95;3.15;;;;;;;;;;5079784;28;20372;-45
2022/07/28 08:21:49;;;;;;;6.55;3.25;;;;;;;;;;5070946;28;20016;-46
2022/07/28 08:24:14;;;;;;;11.10;3.47;;;;;;;;;;5082169;28;20020;-46
2022/07/28 08:26:39;;;;;;;6.10;2.80;;;;;;;;;;5071218;28;20021;-46
2022/07/28 08:29:05;;;;;;;6.75;3.85;;;;;;;;;;5070761;28;20547;-46
2022/07/28 08:31:30;;;;;;;11.02;3.17;;;;;;;;;;5071624;28;20027;-45
2022/07/28 08:33:57;;;;;;;13.82;4.03;;;;;;;;;;5072164;28;20702;-46
2022/07/28 08:36:22;;;;;;;8.30;3.42;;;;;;;;;;5077835;28;20462;-46
2022/07/28 08:38:48;;;;;;;8.30;3.72;;;;;;;;;;5087614;28;20035;-46
2022/07/28 08:41:18;;;;;;;10.48;3.42;;;;;;;;;;5084720;28;20065;-45
2022/07/28 08:43:46;;;;;;;11.50;3.47;;;;;;;;;;5087644;28;20030;-47
2022/07/28 08:46:12;;;;;;;7.28;3.47;;;;;;;;;;5083146;28;20012;-42
2022/07/28 08:48:38;;;;;;;7.05;3.35;;;;;;;;;;5076239;28;20019;-43
2022/07/28 08:51:08;;;;;;;5.35;3.22;;;;;;;;;;5069660;28;20056;-43
2022/07/28 08:53:37;;;;;;;10.50;3.80;;;;;;;;;;5074918;28;20028;-44
2022/07/28 08:56:10;;;;;;;6.57;3.00;;;;;;;;;;5073510;28;20024;-43
2022/07/28 08:58:36;;;;;;;5.15;2.83;;;;;;;;;;5070635;28;20120;-43
2022/07/28 09:01:03;;;;;;;6.65;3.20;;;;;;;;;;5068330;28;20136;-43
2022/07/28 09:03:28;;;;;;;7.45;3.00;;;;;;;;;;5070308;28;20059;-45
2022/07/28 09:05:54;;;;;;;5.15;3.55;;;;;;;;;;5073553;28;20016;-44
2022/07/28 09:08:19;;;;;;;5.15;2.97;;;;;;;;;;5077701;28;20037;-44
2022/07/28 09:10:47;;;;;;;7.97;2.97;;;;;;;;;;5066003;28;20071;-42
2022/07/28 09:13:13;;;;;;;13.82;3.90;;;;;;;;;;5081924;28;20455;-43
2022/07/28 09:15:38;;;;;;;6.10;3.35;;;;;;;;;;5081734;28;20025;-43
2022/07/28 09:18:04;;;;;;;11.77;3.50;;;;;;;;;;5071125;28;20557;-40
2022/07/28 09:20:29;;;;;;;8.75;3.35;;;;;;;;;;5067875;28;20262;-44
2022/07/28 09:22:56;;;;;;;15.73;3.42;;;;;;;;;;5066918;28;20021;-44
2022/07/28 09:25:21;;;;;;;7.22;3.33;;;;;;;;;;5067538;28;20033;-44
2022/07/28 09:27:47;;;;;;;4.40;2.78;;;;;;;;;;5062992;28;20075;-45
2022/07/28 09:30:12;;;;;;;10.70;4.10;;;;;;;;;;5065929;28;20036;-45
2022/07/28 09:32:38;;;;;;;5.57;3.08;;;;;;;;;;5066764;28;20023;-46
2022/07/28 09:35:16;;;;;;;4.47;3.20;;;;;;;;;;5062456;28;20020;-45
2022/07/28 09:37:41;;;;;;;6.70;3.40;;;;;;;;;;5066794;28;20119;-45
2022/07/28 09:40:10;;;;;;;5.72;3.22;;;;;;;;;;5069621;28;20095;-43
2022/07/28 09:42:46;;;;;;;6.60;3.15;;;;;;;;;;5066232;28;20024;-44
2022/07/28 09:45:11;;;;;;;4.15;2.65;;;;;;;;;;5067885;28;20105;-44
2022/07/28 09:47:39;;;;;;;4.72;2.83;;;;;;;;;;5066732;28;20017;-44
2022/07/28 09:50:04;;;;;;;8.10;3.03;;;;;;;;;;5065983;28;20025;-45
2022/07/28 09:52:32;;;;;;;7.57;4.18;;;;;;;;;;5067440;28;20029;-44
2022/07/28 09:54:59;;;;;;;5.65;2.70;;;;;;;;;;5066162;28;20466;-43
2022/07/28 09:57:28;;;;;;;9.35;3.30;;;;;;;;;;5067366;28;20059;-44
2022/07/28 09:59:54;;;;;;;5.85;4.13;;;;;;;;;;5069166;28;20060;-43
2022/07/28 10:02:26;;;;;;;16.85;3.45;;;;;;;;;;5066730;28;20723;-46
2022/07/28 10:04:53;;;;;;;8.45;2.88;;;;;;;;;;5063957;28;20085;-45
2022/07/28 10:07:18;;;;;;;4.28;2.45;;;;;;;;;;5070094;28;20062;-42
2022/07/28 10:10:04;;;;;;;7.40;2.63;;;;;;;;;;5068290;28;20032;-44
2022/07/28 10:12:30;;;;;;;4.78;2.60;;;;;;;;;;5066980;28;20073;-44
2022/07/28 10:16:09;;;;;;;5.43;2.85;;;;;;;;;;5067821;28;20020;-47
2022/07/28 10:17:46;;;;;;;3.95;2.50;;;;;;;;;;5069043;28;20158;-46
2022/07/28 10:20:11;;;;;;;4.35;2.47;;;;;;;;;;5069462;28;20120;-46
2022/07/28 10:22:37;;;;;;;5.70;2.83;;;;;;;;;;5070148;28;20012;-44
2022/07/28 10:25:11;;;;;;;4.25;2.38;;;;;;;;;;5069544;28;20242;-45
2022/07/28 10:27:39;;;;;;;3.70;2.95;;;;;;;;;;5070050;28;20423;-45
2022/07/28 10:30:04;;;;;;;7.40;2.97;;;;;;;;;;5068500;28;20032;-45
2022/07/28 10:32:37;;;;;;;4.18;2.70;;;;;;;;;;5069259;28;20178;-45
2022/07/28 10:35:03;;;;;;;7.05;2.72;;;;;;;;;;5069508;28;20009;-44
2022/07/28 10:37:30;;;;;;;4.60;2.78;;;;;;;;;;5072524;28;20042;-45
2022/07/28 10:40:05;;;;;;;4.50;2.95;;;;;;;;;;5072987;28;20117;-45
2022/07/28 10:42:31;;;;;;;7.38;2.78;;;;;;;;;;5072470;28;20058;-44
2022/07/28 10:44:56;;;;;;;5.88;2.70;;;;;;;;;;5073249;28;20020;-45
2022/07/28 10:47:22;;;;;;;5.38;2.60;;;;;;;;;;5072306;28;20056;-44
2022/07/28 10:49:47;;;;;;;5.28;2.80;;;;;;;;;;5073288;28;20031;-44
2022/07/28 10:52:16;;;;;;;9.13;2.60;;;;;;;;;;5073796;28;20380;-43
2022/07/28 10:54:45;;;;;;;4.15;2.40;;;;;;;;;;5072956;28;20031;-47
2022/07/28 10:57:11;;;;;;;4.90;1.90;;;;;;;;;;5073042;28;20028;-44
2022/07/28 10:59:55;;;;;;;6.68;2.30;;;;;;;;;;5074124;28;20021;-44
2022/07/28 11:02:38;;;;;;;2.75;1.90;;;;;;;;;;5072773;28;20363;-42
2022/07/28 11:05:23;;;;;;;6.25;1.88;;;;;;;;;;5071810;28;20098;-44
2022/07/28 11:07:49;;;;;;;3.53;2.03;;;;;;;;;;5071532;28;20024;-44
2022/07/28 11:10:15;;;;;;;19.98;2.55;;;;;;;;;;5067900;28;20024;-46
2022/07/28 11:12:45;;;;;;;6.60;2.00;;;;;;;;;;5073523;28;20016;-47
2022/07/28 11:15:30;;;;;;;3.13;1.90;;;;;;;;;;5073870;28;20604;-44
2022/07/28 11:18:14;;;;;;;2.90;1.73;;;;;;;;;;5071741;28;20081;-44
2022/07/28 11:21:05;;;;;;;2.35;1.50;;;;;;;;;;5071173;28;20040;-46
2022/07/28 11:23:38;;;;;;;2.65;1.77;;;;;;;;;;5066106;28;20036;-44
2022/07/28 11:26:16;;;;;;;3.38;1.73;;;;;;;;;;5059004;28;20041;-45
2022/07/28 11:28:59;;;;;;;2.92;1.52;;;;;;;;;;5052813;28;20078;-46
2022/07/28 11:31:43;;;;;;;3.05;1.80;;;;;;;;;;5070337;28;20040;-45
2022/07/28 11:34:18;;;;;;;2.03;1.40;;;;;;;;;;5081597;28;20031;-45
2022/07/28 11:37:02;;;;;;;5.95;1.95;;;;;;;;;;5068151;28;20403;-45
2022/07/28 11:39:29;;;;;;;2.30;1.60;;;;;;;;;;5080314;28;20063;-46
2022/07/28 11:41:54;;;;;;;7.07;1.60;;;;;;;;;;5078732;28;20400;-45
2022/07/28 11:44:27;;;;;;;3.63;2.17;;;;;;;;;;5073143;28;20072;-45
2022/07/28 11:46:52;;;;;;;3.20;1.80;;;;;;;;;;5077470;28;20471;-48
2022/07/28 11:49:19;;;;;;;3.15;2.05;;;;;;;;;;5070009;28;20024;-46
2022/07/28 11:52:03;;;;;;;4.88;2.00;;;;;;;;;;5069960;28;20032;-46
2022/07/28 11:54:29;;;;;;;3.83;1.80;;;;;;;;;;5069381;28;20021;-44
2022/07/28 11:56:57;;;;;;;2.80;1.83;;;;;;;;;;5070966;28;20532;-45
2022/07/28 11:59:23;;;;;;;3.60;1.92;;;;;;;;;;5070740;28;20028;-45
2022/07/28 12:01:52;;;;;;;4.28;1.85;;;;;;;;;;5069411;28;20017;-45
2022/07/28 12:04:18;;;;;;;7.00;1.92;;;;;;;;;;5069507;28;20060;-46
2022/07/28 12:06:45;;;;;;;5.30;2.35;;;;;;;;;;5072230;28;20107;-44
2022/07/28 12:09:12;;;;;;;3.88;2.08;;;;;;;;;;5069042;28;20066;-46
2022/07/28 12:11:42;;;;;;;5.85;1.80;;;;;;;;;;5067829;28;20051;-46
2022/07/28 12:14:07;;;;;;;6.93;2.25;;;;;;;;;;5071024;28;20020;-46
2022/07/28 12:16:34;;;;;;;6.60;2.10;;;;;;;;;;5070757;28;20487;-48
2022/07/28 12:19:00;;;;;;;6.82;2.45;;;;;;;;;;5071149;28;20100;-46
2022/07/28 12:21:34;;;;;;;7.47;2.60;;;;;;;;;;5070663;28;20071;-46
2022/07/28 12:23:59;;;;;;;4.72;2.17;;;;;;;;;;5074156;28;20058;-45
2022/07/28 12:26:28;;;;;;;3.73;2.07;;;;;;;;;;5083445;28;20473;-45
2022/07/28 12:28:55;;;;;;;6.82;2.30;;;;;;;;;;5068447;28;20024;-45
2022/07/28 12:31:24;;;;;;;5.15;2.05;;;;;;;;;;5067718;28;20110;-48
2022/07/28 12:33:51;;;;;;;7.78;2.20;;;;;;;;;;5066575;28;20167;-47
2022/07/28 12:36:18;;;;;;;4.95;2.33;;;;;;;;;;5075728;28;20024;-47
2022/07/28 12:38:44;;;;;;;4.32;2.13;;;;;;;;;;5070010;28;20028;-44
2022/07/28 12:41:16;;;;;;;4.07;1.88;;;;;;;;;;5067359;28;20028;-46
2022/07/28 12:43:54;;;;;;;8.98;2.25;;;;;;;;;;5065066;28;20630;-48
2022/07/28 12:46:22;;;;;;;4.07;2.35;;;;;;;;;;5066109;28;20012;-47
2022/07/28 12:48:48;;;;;;;3.03;2.17;;;;;;;;;;5070497;28;20089;-44
2022/07/28 12:51:32;;;;;;;6.90;2.30;;;;;;;;;;5071792;28;20561;-44
2022/07/28 12:53:57;;;;;;;5.45;2.50;;;;;;;;;;5051311;28;20036;-45
2022/07/28 12:56:23;;;;;;;5.27;2.50;;;;;;;;;;5049429;28;20448;-45
2022/07/28 12:59:01;;;;;;;7.07;2.50;;;;;;;;;;5049474;28;20736;-45
2022/07/28 13:01:42;;;;;;;6.53;2.88;;;;;;;;;;5059001;28;20103;-46
2022/07/28 13:04:07;;;;;;;3.05;2.30;;;;;;;;;;5069104;28;20098;-46
2022/07/28 13:06:34;;;;;;;6.75;2.55;;;;;;;;;;5069212;28;20024;-44
2022/07/28 13:08:59;;;;;;;5.28;2.42;;;;;;;;;;5071087;28;20363;-45
2022/07/28 13:11:29;;;;;;;5.25;2.63;;;;;;;;;;5077596;28;20042;-46
2022/07/28 13:13:56;;;;;;;10.80;2.72;;;;;;;;;;5069501;28;20027;-46
2022/07/28 13:16:23;;;;;;;7.47;2.35;;;;;;;;;;5070317;28;20027;-45
2022/07/28 13:18:53;;;;;;;3.53;2.38;;;;;;;;;;5071485;28;20027;-44
2022/07/28 13:21:40;;;;;;;5.00;2.50;;;;;;;;;;5072393;28;20103;-46
2022/07/28 13:24:09;;;;;;;3.35;2.30;;;;;;;;;;5060191;28;20051;-44
2022/07/28 13:26:36;;;;;;;3.45;2.65;;;;;;;;;;5069457;28;20506;-45
2022/07/28 13:29:02;;;;;;;5.30;2.40;;;;;;;;;;5053573;28;20020;-47
2022/07/28 13:31:28;;;;;;;9.32;2.60;;;;;;;;;;5069521;28;20029;-46
2022/07/28 13:33:53;;;;;;;3.60;2.28;;;;;;;;;;5068602;28;20082;-45
2022/07/28 13:36:18;;;;;;;10.27;2.65;;;;;;;;;;5068736;28;20028;-46
2022/07/28 13:38:44;;;;;;;8.50;2.65;;;;;;;;;;5070734;28;20523;-45
2022/07/28 13:41:09;;;;;;;5.72;2.38;;;;;;;;;;5070683;28;20379;-46
2022/07/28 13:43:34;;;;;;;3.13;2.20;;;;;;;;;;5069037;28;20033;-46
2022/07/28 13:46:00;;;;;;;5.27;2.53;;;;;;;;;;5070490;28;20249;-45
2022/07/28 13:48:25;;;;;;;6.60;2.63;;;;;;;;;;5069328;28;20271;-46
2022/07/28 13:50:50;;;;;;;4.72;2.42;;;;;;;;;;5075551;28;20265;-46
2022/07/28 13:53:16;;;;;;;2.80;2.28;;;;;;;;;;5071956;28;20100;-46
2022/07/28 13:55:41;;;;;;;3.90;2.30;;;;;;;;;;5079981;28;20503;-45
2022/07/28 13:58:06;;;;;;;5.23;2.27;;;;;;;;;;5065264;28;20285;-46
2022/07/28 14:00:32;;;;;;;3.73;2.50;;;;;;;;;;5068855;28;20752;-43
2022/07/28 14:02:57;;;;;;;4.65;2.10;;;;;;;;;;5069257;28;20021;-44
2022/07/28 14:05:22;;;;;;;5.30;2.57;;;;;;;;;;5071045;28;20045;-43
2022/07/28 14:07:48;;;;;;;3.60;2.58;;;;;;;;;;5075783;28;20266;-45
2022/07/28 14:10:13;;;;;;;9.35;2.70;;;;;;;;;;5080353;28;20070;-45
2022/07/28 14:12:38;;;;;;;5.07;2.40;;;;;;;;;;5075203;28;20021;-43
2022/07/28 14:15:05;;;;;;;4.40;2.47;;;;;;;;;;5074953;28;20020;-43
2022/07/28 14:17:31;;;;;;;5.35;2.03;;;;;;;;;;5074910;28;20123;-45
2022/07/28 14:19:56;;;;;;;6.78;2.45;;;;;;;;;;5076096;28;20107;-43
2022/07/28 14:22:22;;;;;;;4.40;2.28;;;;;;;;;;5084164;28;20024;-43
2022/07/28 14:24:47;;;;;;;8.95;2.83;;;;;;;;;;5085972;28;20058;-46
2022/07/28 14:27:12;;;;;;;2.42;2.13;;;;;;;;;;5091429;28;20012;-46
2022/07/28 14:29:39;;;;;;;3.17;2.40;;;;;;;;;;5074863;28;20016;-44
2022/07/28 14:32:04;;;;;;;5.95;2.53;;;;;;;;;;5074916;28;20062;-45
2022/07/28 14:34:30;;;;;;;3.55;2.53;;;;;;;;;;5090822;28;20062;-44
2022/07/28 14:36:55;;;;;;;4.60;2.50;;;;;;;;;;5096394;28;20047;-45
2022/07/28 14:39:21;;;;;;;7.37;2.40;;;;;;;;;;5096815;28;20248;-43
2022/07/28 14:41:46;;;;;;;5.13;2.53;;;;;;;;;;5097027;28;20229;-46
2022/07/28 14:44:11;;;;;;;6.93;2.43;;;;;;;;;;5096625;28;20022;-45
2022/07/28 14:46:36;;;;;;;5.37;2.70;;;;;;;;;;5093711;28;20251;-44